sensor_id;sensor_type;location;lat;lon;timestamp;pressure;altitude;pressure_sealevel;temperature;humidity
65880;BME280;52661;51.364;6.054;2023-02-17T00:00:30;101653.59;;;10.13;100.00
65880;BME280;52661;51.364;6.054;2023-02-17T00:02:58;101656.00;;;10.18;100.00
65880;BME280;52661;51.364;6.054;2023-02-17T00:05:24;101663.38;;;10.17;100.00
65880;BME280;52661;51.364;6.054;2023-02-17T00:07:49;101652.91;;;10.16;100.00
65880;BME280;52661;51.364;6.054;2023-02-17T00:10:15;101659.78;;;10.13;100.00
65880;BME280;52661;51.364;6.054;2023-02-17T00:12:40;101668.38;;;10.15;100.00
65880;BME280;52661;51.364;6.054;2023-02-17T00:15:06;101654.16;;;10.22;100.00
65880;BME280;52661;51.364;6.054;2023-02-17T00:17:32;101656.50;;;10.23;100.00
65880;BME280;52661;51.364;6.054;2023-02-17T00:19:57;101644.09;;;10.22;100.00
65880;BME280;52661;51.364;6.054;2023-02-17T00:22:22;101649.81;;;10.17;100.00
65880;BME280;52661;51.364;6.054;2023-02-17T00:24:48;101647.38;;;10.12;100.00
65880;BME280;52661;51.364;6.054;2023-02-17T00:27:13;101651.22;;;10.11;100.00
65880;BME280;52661;51.364;6.054;2023-02-17T00:29:38;101640.38;;;10.11;100.00
65880;BME280;52661;51.364;6.054;2023-02-17T00:32:04;101650.19;;;10.16;100.00
65880;BME280;52661;51.364;6.054;2023-02-17T00:34:29;101653.25;;;10.14;100.00
65880;BME280;52661;51.364;6.054;2023-02-17T00:36:54;101650.44;;;10.11;100.00
65880;BME280;52661;51.364;6.054;2023-02-17T00:39:20;101649.41;;;10.15;100.00
65880;BME280;52661;51.364;6.054;2023-02-17T00:41:45;101652.09;;;10.15;100.00
65880;BME280;52661;51.364;6.054;2023-02-17T00:44:19;101655.22;;;10.17;100.00
65880;BME280;52661;51.364;6.054;2023-02-17T00:46:45;101640.03;;;10.13;100.00
65880;BME280;52661;51.364;6.054;2023-02-17T00:49:15;101644.66;;;10.12;100.00
65880;BME280;52661;51.364;6.054;2023-02-17T00:51:42;101643.09;;;10.11;100.00
65880;BME280;52661;51.364;6.054;2023-02-17T00:54:08;101640.03;;;10.13;100.00
65880;BME280;52661;51.364;6.054;2023-02-17T00:56:33;101645.81;;;10.11;100.00
65880;BME280;52661;51.364;6.054;2023-02-17T00:58:58;101643.97;;;10.15;100.00
65880;BME280;52661;51.364;6.054;2023-02-17T01:01:24;101636.97;;;10.14;100.00
65880;BME280;52661;51.364;6.054;2023-02-17T01:03:49;101641.97;;;10.12;100.00
65880;BME280;52661;51.364;6.054;2023-02-17T01:06:23;101633.03;;;10.12;100.00
65880;BME280;52661;51.364;6.054;2023-02-17T01:08:49;101633.75;;;10.09;100.00
65880;BME280;52661;51.364;6.054;2023-02-17T01:11:24;101632.19;;;10.08;100.00
65880;BME280;52661;51.364;6.054;2023-02-17T01:13:49;101632.19;;;10.08;100.00
65880;BME280;52661;51.364;6.054;2023-02-17T01:16:17;101619.75;;;10.07;100.00
65880;BME280;52661;51.364;6.054;2023-02-17T01:18:43;101620.91;;;10.06;100.00
65880;BME280;52661;51.364;6.054;2023-02-17T01:21:20;101618.13;;;10.02;100.00
65880;BME280;52661;51.364;6.054;2023-02-17T01:23:48;101623.56;;;10.02;100.00
65880;BME280;52661;51.364;6.054;2023-02-17T01:26:15;101615.00;;;10.00;100.00
65880;BME280;52661;51.364;6.054;2023-02-17T01:28:41;101611.88;;;9.98;100.00
65880;BME280;52661;51.364;6.054;2023-02-17T01:31:08;101614.22;;;10.00;100.00
65880;BME280;52661;51.364;6.054;2023-02-17T01:33:34;101623.13;;;10.00;100.00
65880;BME280;52661;51.364;6.054;2023-02-17T01:36:04;101608.44;;;10.01;100.00
65880;BME280;52661;51.364;6.054;2023-02-17T01:38:30;101608.44;;;10.01;100.00
65880;BME280;52661;51.364;6.054;2023-02-17T01:40:56;101607.28;;;10.02;100.00
65880;BME280;52661;51.364;6.054;2023-02-17T01:43:21;101606.13;;;10.03;100.00
65880;BME280;52661;51.364;6.054;2023-02-17T01:45:50;101599.53;;;10.01;100.00
65880;BME280;52661;51.364;6.054;2023-02-17T01:48:20;101596.88;;;10.04;100.00
65880;BME280;52661;51.364;6.054;2023-02-17T01:50:58;101590.66;;;10.04;100.00
65880;BME280;52661;51.364;6.054;2023-02-17T01:53:34;101586.03;;;10.04;100.00
65880;BME280;52661;51.364;6.054;2023-02-17T01:56:01;101590.66;;;10.04;100.00
65880;BME280;52661;51.364;6.054;2023-02-17T01:58:28;101583.38;;;10.08;100.00
65880;BME280;52661;51.364;6.054;2023-02-17T02:00:57;101582.22;;;10.09;100.00
65880;BME280;52661;51.364;6.054;2023-02-17T02:03:25;101582.22;;;10.09;100.00
65880;BME280;52661;51.364;6.054;2023-02-17T02:05:52;101578.34;;;10.10;100.00
65880;BME280;52661;51.364;6.054;2023-02-17T02:08:17;101577.19;;;10.11;100.00
65880;BME280;52661;51.364;6.054;2023-02-17T02:10:43;101581.06;;;10.10;100.00
65880;BME280;52661;51.364;6.054;2023-02-17T02:13:08;101589.19;;;10.10;100.00
65880;BME280;52661;51.364;6.054;2023-02-17T02:15:40;101585.34;;;10.11;100.00
65880;BME280;52661;51.364;6.054;2023-02-17T02:21:10;101590.78;;;10.11;100.00
65880;BME280;52661;51.364;6.054;2023-02-17T02:29:46;101572.97;;;10.13;100.00
65880;BME280;52661;51.364;6.054;2023-02-17T02:34:45;101581.84;;;10.10;100.00
65880;BME280;52661;51.364;6.054;2023-02-17T02:37:25;101571.38;;;10.09;100.00
65880;BME280;52661;51.364;6.054;2023-02-17T02:39:52;101572.13;;;10.09;100.00
65880;BME280;52661;51.364;6.054;2023-02-17T02:42:22;101568.66;;;10.09;100.00
65880;BME280;52661;51.364;6.054;2023-02-17T02:44:47;101569.00;;;10.07;100.00
65880;BME280;52661;51.364;6.054;2023-02-17T02:47:51;101573.31;;;10.08;100.00
65880;BME280;52661;51.364;6.054;2023-02-17T02:50:54;101557.03;;;10.08;100.00
65880;BME280;52661;51.364;6.054;2023-02-17T02:56:38;101546.19;;;10.08;100.00
65880;BME280;52661;51.364;6.054;2023-02-17T03:02:31;101538.09;;;10.12;100.00
65880;BME280;52661;51.364;6.054;2023-02-17T03:07:47;101541.88;;;10.07;100.00
65880;BME280;52661;51.364;6.054;2023-02-17T03:10:15;101538.03;;;10.08;100.00
65880;BME280;52661;51.364;6.054;2023-02-17T03:12:40;101524.47;;;10.08;100.00
65880;BME280;52661;51.364;6.054;2023-02-17T03:15:25;101525.63;;;10.07;100.00
65880;BME280;52661;51.364;6.054;2023-02-17T03:17:55;101524.88;;;10.10;100.00
65880;BME280;52661;51.364;6.054;2023-02-17T03:20:21;101519.84;;;10.09;100.00
65880;BME280;52661;51.364;6.054;2023-02-17T03:22:47;101515.16;;;10.09;100.00
65880;BME280;52661;51.364;6.054;2023-02-17T03:25:13;101517.59;;;10.14;100.00
65880;BME280;52661;51.364;6.054;2023-02-17T03:27:39;101509.91;;;10.16;100.00
65880;BME280;52661;51.364;6.054;2023-02-17T03:30:05;101512.97;;;10.15;100.00
65880;BME280;52661;51.364;6.054;2023-02-17T03:32:31;101513.81;;;10.19;100.00
65880;BME280;52661;51.364;6.054;2023-02-17T03:34:56;101514.59;;;10.19;100.00
65880;BME280;52661;51.364;6.054;2023-02-17T03:37:21;101511.84;;;10.16;100.00
65880;BME280;52661;51.364;6.054;2023-02-17T03:39:47;101520.31;;;10.14;100.00
65880;BME280;52661;51.364;6.054;2023-02-17T03:42:12;101525.41;;;10.16;100.00
65880;BME280;52661;51.364;6.054;2023-02-17T03:44:37;101535.00;;;10.13;100.00
65880;BME280;52661;51.364;6.054;2023-02-17T03:47:03;101532.66;;;10.12;100.00
65880;BME280;52661;51.364;6.054;2023-02-17T03:49:28;101545.00;;;10.09;100.00
65880;BME280;52661;51.364;6.054;2023-02-17T03:51:54;101540.38;;;10.10;100.00
65880;BME280;52661;51.364;6.054;2023-02-17T03:54:19;101533.88;;;10.14;100.00
65880;BME280;52661;51.364;6.054;2023-02-17T03:56:45;101538.56;;;10.17;100.00
65880;BME280;52661;51.364;6.054;2023-02-17T03:59:10;101554.50;;;10.19;100.00
65880;BME280;52661;51.364;6.054;2023-02-17T04:01:35;101534.00;;;10.21;100.00
65880;BME280;52661;51.364;6.054;2023-02-17T04:04:01;101533.59;;;10.19;100.00
65880;BME280;52661;51.364;6.054;2023-02-17T04:06:26;101520.41;;;10.21;100.00
65880;BME280;52661;51.364;6.054;2023-02-17T04:08:51;101539.06;;;10.23;100.00
65880;BME280;52661;51.364;6.054;2023-02-17T04:11:17;101529.41;;;10.25;100.00
65880;BME280;52661;51.364;6.054;2023-02-17T04:13:42;101530.97;;;10.26;100.00
65880;BME280;52661;51.364;6.054;2023-02-17T04:16:08;101527.81;;;10.24;100.00
65880;BME280;52661;51.364;6.054;2023-02-17T04:18:34;101525.91;;;10.25;100.00
65880;BME280;52661;51.364;6.054;2023-02-17T04:21:00;101535.56;;;10.22;100.00
65880;BME280;52661;51.364;6.054;2023-02-17T04:23:26;101530.50;;;10.21;100.00
65880;BME280;52661;51.364;6.054;2023-02-17T04:25:51;101532.06;;;10.22;100.00
65880;BME280;52661;51.364;6.054;2023-02-17T04:28:17;101540.56;;;10.20;100.00
65880;BME280;52661;51.364;6.054;2023-02-17T04:30:44;101547.56;;;10.21;100.00
65880;BME280;52661;51.364;6.054;2023-02-17T04:33:09;101545.63;;;10.22;100.00
65880;BME280;52661;51.364;6.054;2023-02-17T04:35:35;101572.41;;;10.23;100.00
65880;BME280;52661;51.364;6.054;2023-02-17T04:38:00;101559.53;;;10.20;100.00
65880;BME280;52661;51.364;6.054;2023-02-17T04:40:26;101556.44;;;10.18;100.00
65880;BME280;52661;51.364;6.054;2023-02-17T04:42:51;101549.81;;;10.16;100.00
65880;BME280;52661;51.364;6.054;2023-02-17T04:45:16;101552.53;;;10.16;100.00
65880;BME280;52661;51.364;6.054;2023-02-17T04:47:42;101552.53;;;10.16;100.00
65880;BME280;52661;51.364;6.054;2023-02-17T04:50:08;101546.78;;;10.21;100.00
65880;BME280;52661;51.364;6.054;2023-02-17T04:52:34;101549.03;;;10.15;100.00
65880;BME280;52661;51.364;6.054;2023-02-17T04:54:59;101541.66;;;10.16;100.00
65880;BME280;52661;51.364;6.054;2023-02-17T04:57:26;101539.75;;;10.16;100.00
65880;BME280;52661;51.364;6.054;2023-02-17T04:59:51;101536.59;;;10.14;100.00
65880;BME280;52661;51.364;6.054;2023-02-17T05:02:16;101544.38;;;10.16;100.00
65880;BME280;52661;51.364;6.054;2023-02-17T05:04:42;101538.16;;;10.15;100.00
65880;BME280;52661;51.364;6.054;2023-02-17T05:07:07;101536.50;;;10.11;100.00
65880;BME280;52661;51.364;6.054;2023-02-17T05:09:32;101529.91;;;10.08;100.00
65880;BME280;52661;51.364;6.054;2023-02-17T05:11:57;101533.00;;;10.10;100.00
65880;BME280;52661;51.364;6.054;2023-02-17T05:14:23;101531.44;;;10.09;100.00
65880;BME280;52661;51.364;6.054;2023-02-17T05:16:48;101522.56;;;10.09;100.00
65880;BME280;52661;51.364;6.054;2023-02-17T05:19:14;101518.25;;;10.08;100.00
65880;BME280;52661;51.364;6.054;2023-02-17T05:21:39;101509.34;;;10.07;100.00
65880;BME280;52661;51.364;6.054;2023-02-17T05:24:04;101495.72;;;10.04;100.00
65880;BME280;52661;51.364;6.054;2023-02-17T05:26:30;101510.88;;;10.05;100.00
65880;BME280;52661;51.364;6.054;2023-02-17T05:28:55;101511.22;;;10.03;100.00
65880;BME280;52661;51.364;6.054;2023-02-17T05:31:21;101520.91;;;10.04;100.00
65880;BME280;52661;51.364;6.054;2023-02-17T05:33:46;101513.19;;;10.06;100.00
65880;BME280;52661;51.364;6.054;2023-02-17T05:36:12;101510.88;;;10.05;100.00
65880;BME280;52661;51.364;6.054;2023-02-17T05:38:38;101518.22;;;10.04;100.00
65880;BME280;52661;51.364;6.054;2023-02-17T05:41:04;101519.78;;;10.05;100.00
65880;BME280;52661;51.364;6.054;2023-02-17T05:43:29;101507.72;;;10.03;100.00
65880;BME280;52661;51.364;6.054;2023-02-17T05:45:55;101520.91;;;10.04;100.00
65880;BME280;52661;51.364;6.054;2023-02-17T05:48:20;101513.94;;;10.03;100.00
65880;BME280;52661;51.364;6.054;2023-02-17T05:50:45;101509.28;;;10.04;100.00
65880;BME280;52661;51.364;6.054;2023-02-17T05:53:11;101511.22;;;10.03;100.00
65880;BME280;52661;51.364;6.054;2023-02-17T05:55:37;101531.34;;;10.02;100.00
65880;BME280;52661;51.364;6.054;2023-02-17T05:58:02;101517.03;;;10.02;100.00
65880;BME280;52661;51.364;6.054;2023-02-17T06:00:28;101508.44;;;10.00;100.00
65880;BME280;52661;51.364;6.054;2023-02-17T06:02:53;101506.47;;;9.97;100.00
65880;BME280;52661;51.364;6.054;2023-02-17T06:05:19;101516.19;;;9.98;100.00
65880;BME280;52661;51.364;6.054;2023-02-17T06:07:44;101515.41;;;9.97;100.00
65880;BME280;52661;51.364;6.054;2023-02-17T06:10:10;101502.19;;;9.96;100.00
65880;BME280;52661;51.364;6.054;2023-02-17T06:12:36;101518.84;;;9.94;100.00
65880;BME280;52661;51.364;6.054;2023-02-17T06:15:01;101517.25;;;9.93;100.00
65880;BME280;52661;51.364;6.054;2023-02-17T06:17:26;101517.66;;;9.95;100.00
65880;BME280;52661;51.364;6.054;2023-02-17T06:19:52;101524.66;;;9.96;100.00
65880;BME280;52661;51.364;6.054;2023-02-17T06:22:17;101515.75;;;9.96;100.00
65880;BME280;52661;51.364;6.054;2023-02-17T06:24:42;101530.88;;;9.97;100.00
65880;BME280;52661;51.364;6.054;2023-02-17T06:27:08;101520.75;;;9.94;100.00
65880;BME280;52661;51.364;6.054;2023-02-17T06:29:33;101524.25;;;9.94;100.00
65880;BME280;52661;51.364;6.054;2023-02-17T06:31:58;101530.41;;;9.91;100.00
65880;BME280;52661;51.364;6.054;2023-02-17T06:34:24;101518.72;;;9.87;100.00
65880;BME280;52661;51.364;6.054;2023-02-17T06:36:49;101508.28;;;9.89;100.00
65880;BME280;52661;51.364;6.054;2023-02-17T06:39:15;101509.03;;;9.86;100.00
65880;BME280;52661;51.364;6.054;2023-02-17T06:41:40;101514.44;;;9.86;100.00
65880;BME280;52661;51.364;6.054;2023-02-17T06:44:07;101520.59;;;9.83;100.00
65880;BME280;52661;51.364;6.054;2023-02-17T06:46:32;101514.75;;;9.81;100.00
65880;BME280;52661;51.364;6.054;2023-02-17T06:48:57;101502.75;;;9.82;100.00
65880;BME280;52661;51.364;6.054;2023-02-17T06:51:24;101508.97;;;9.82;100.00
65880;BME280;52661;51.364;6.054;2023-02-17T06:53:49;101506.66;;;9.84;100.00
65880;BME280;52661;51.364;6.054;2023-02-17T06:56:15;101515.22;;;9.86;100.00
65880;BME280;52661;51.364;6.054;2023-02-17T06:58:40;101504.78;;;9.88;100.00
65880;BME280;52661;51.364;6.054;2023-02-17T07:01:05;101510.22;;;9.88;100.00
65880;BME280;52661;51.364;6.054;2023-02-17T07:03:32;101515.34;;;9.94;100.00
65880;BME280;52661;51.364;6.054;2023-02-17T07:05:58;101514.91;;;9.92;100.00
65880;BME280;52661;51.364;6.054;2023-02-17T07:08:24;101512.25;;;9.95;100.00
65880;BME280;52661;51.364;6.054;2023-02-17T07:10:49;101517.25;;;9.93;100.00
65880;BME280;52661;51.364;6.054;2023-02-17T07:13:14;101502.63;;;9.98;100.00
65880;BME280;52661;51.364;6.054;2023-02-17T07:15:40;101508.09;;;10.01;100.00
65880;BME280;52661;51.364;6.054;2023-02-17T07:18:05;101507.38;;;10.04;100.00
65880;BME280;52661;51.364;6.054;2023-02-17T07:20:31;101501.94;;;10.04;100.00
65880;BME280;52661;51.364;6.054;2023-02-17T07:22:58;101521.31;;;10.06;100.00
65880;BME280;52661;51.364;6.054;2023-02-17T07:25:23;101506.22;;;10.05;100.00
65880;BME280;52661;51.364;6.054;2023-02-17T07:27:48;101504.31;;;10.09;100.00
65880;BME280;52661;51.364;6.054;2023-02-17T07:30:14;101515.16;;;10.09;100.00
65880;BME280;52661;51.364;6.054;2023-02-17T07:32:39;101528.03;;;10.12;100.00
65880;BME280;52661;51.364;6.054;2023-02-17T07:35:05;101535.06;;;10.17;100.00
65880;BME280;52661;51.364;6.054;2023-02-17T07:37:30;101515.72;;;10.18;100.00
65880;BME280;52661;51.364;6.054;2023-02-17T07:39:56;101512.22;;;10.18;100.00
65880;BME280;52661;51.364;6.054;2023-02-17T07:42:21;101524.66;;;10.19;100.00
65880;BME280;52661;51.364;6.054;2023-02-17T07:44:47;101513.41;;;10.20;100.00
65880;BME280;52661;51.364;6.054;2023-02-17T07:47:12;101535.97;;;10.24;100.00
65880;BME280;52661;51.364;6.054;2023-02-17T07:49:38;101526.69;;;10.25;100.00
65880;BME280;52661;51.364;6.054;2023-02-17T07:52:04;101512.75;;;10.27;100.00
65880;BME280;52661;51.364;6.054;2023-02-17T07:54:29;101515.47;;;10.27;100.00
65880;BME280;52661;51.364;6.054;2023-02-17T07:56:54;101513.91;;;10.26;100.00
65880;BME280;52661;51.364;6.054;2023-02-17T07:59:20;101517.44;;;10.30;100.00
65880;BME280;52661;51.364;6.054;2023-02-17T08:01:45;101512.06;;;10.33;100.00
65880;BME280;52661;51.364;6.054;2023-02-17T08:04:10;101521.34;;;10.32;100.00
65880;BME280;52661;51.364;6.054;2023-02-17T08:06:37;101512.88;;;10.34;100.00
65880;BME280;52661;51.364;6.054;2023-02-17T08:09:04;101510.59;;;10.40;100.00
65880;BME280;52661;51.364;6.054;2023-02-17T08:11:48;101509.47;;;10.41;100.00
65880;BME280;52661;51.364;6.054;2023-02-17T08:14:32;101507.94;;;10.43;100.00
65880;BME280;52661;51.364;6.054;2023-02-17T08:16:58;101509.56;;;10.48;100.00
65880;BME280;52661;51.364;6.054;2023-02-17T08:19:24;101527.75;;;10.47;100.00
65880;BME280;52661;51.364;6.054;2023-02-17T08:21:53;101515.75;;;10.48;100.00
65880;BME280;52661;51.364;6.054;2023-02-17T08:24:18;101526.66;;;10.52;100.00
65880;BME280;52661;51.364;6.054;2023-02-17T08:26:44;101524.34;;;10.54;100.00
65880;BME280;52661;51.364;6.054;2023-02-17T08:29:10;101517.41;;;10.56;100.00
65880;BME280;52661;51.364;6.054;2023-02-17T08:31:35;101510.47;;;10.59;100.00
65880;BME280;52661;51.364;6.054;2023-02-17T08:34:03;101512.84;;;10.64;100.00
65880;BME280;52661;51.364;6.054;2023-02-17T08:36:30;101518.28;;;10.64;100.00
65880;BME280;52661;51.364;6.054;2023-02-17T08:38:55;101514.06;;;10.66;100.00
65880;BME280;52661;51.364;6.054;2023-02-17T08:41:33;101513.31;;;10.69;100.00
65880;BME280;52661;51.364;6.054;2023-02-17T08:44:00;101528.88;;;10.72;100.00
65880;BME280;52661;51.364;6.054;2023-02-17T08:46:27;101524.22;;;10.73;100.00
65880;BME280;52661;51.364;6.054;2023-02-17T08:48:52;101529.22;;;10.71;100.00
65880;BME280;52661;51.364;6.054;2023-02-17T08:51:21;101531.63;;;10.76;100.00
65880;BME280;52661;51.364;6.054;2023-02-17T08:53:48;101530.06;;;10.75;100.00
65880;BME280;52661;51.364;6.054;2023-02-17T08:56:14;101536.75;;;10.81;100.00
65880;BME280;52661;51.364;6.054;2023-02-17T08:58:39;101529.72;;;10.80;100.00
65880;BME280;52661;51.364;6.054;2023-02-17T09:01:04;101534.41;;;10.83;100.00
65880;BME280;52661;51.364;6.054;2023-02-17T09:03:33;101519.69;;;10.84;100.00
65880;BME280;52661;51.364;6.054;2023-02-17T09:05:58;101519.00;;;10.91;100.00
65880;BME280;52661;51.364;6.054;2023-02-17T09:08:24;101539.16;;;10.90;100.00
65880;BME280;52661;51.364;6.054;2023-02-17T09:10:50;101526.41;;;10.94;100.00
65880;BME280;52661;51.364;6.054;2023-02-17T09:13:16;101523.31;;;10.95;100.00
65880;BME280;52661;51.364;6.054;2023-02-17T09:15:42;101531.09;;;10.97;100.00
65880;BME280;52661;51.364;6.054;2023-02-17T09:18:07;101531.13;;;11.00;100.00
65880;BME280;52661;51.364;6.054;2023-02-17T09:20:33;101538.13;;;11.01;100.00
65880;BME280;52661;51.364;6.054;2023-02-17T09:22:59;101540.84;;;11.01;100.00
65880;BME280;52661;51.364;6.054;2023-02-17T09:25:25;101533.84;;;11.00;100.00
65880;BME280;52661;51.364;6.054;2023-02-17T09:27:50;101535.44;;;11.05;100.00
65880;BME280;52661;51.364;6.054;2023-02-17T09:30:15;101540.97;;;11.12;100.00
65880;BME280;52661;51.364;6.054;2023-02-17T09:32:42;101538.25;;;11.12;100.00
65880;BME280;52661;51.364;6.054;2023-02-17T09:35:11;101536.31;;;11.12;100.00
65880;BME280;52661;51.364;6.054;2023-02-17T09:37:36;101545.66;;;11.15;100.00
65880;BME280;52661;51.364;6.054;2023-02-17T09:40:02;101547.66;;;11.21;100.00
65880;BME280;52661;51.364;6.054;2023-02-17T09:42:28;101555.47;;;11.26;100.00
65880;BME280;52661;51.364;6.054;2023-02-17T09:45:21;101557.88;;;11.31;100.00
65880;BME280;52661;51.364;6.054;2023-02-17T09:47:52;101562.56;;;11.34;100.00
65880;BME280;52661;51.364;6.054;2023-02-17T09:50:31;101562.97;;;11.36;100.00
65880;BME280;52661;51.364;6.054;2023-02-17T09:53:09;101568.81;;;11.39;100.00
65880;BME280;52661;51.364;6.054;2023-02-17T09:55:41;101581.28;;;11.43;100.00
65880;BME280;52661;51.364;6.054;2023-02-17T09:58:15;101578.56;;;11.43;100.00
65880;BME280;52661;51.364;6.054;2023-02-17T10:00:45;101565.06;;;11.50;100.00
65880;BME280;52661;51.364;6.054;2023-02-17T10:06:31;101560.03;;;11.52;100.00
65880;BME280;52661;51.364;6.054;2023-02-17T10:09:13;101573.28;;;11.57;100.00
65880;BME280;52661;51.364;6.054;2023-02-17T10:16:49;101567.53;;;11.66;100.00
65880;BME280;52661;51.364;6.054;2023-02-17T10:19:24;101572.19;;;11.65;100.00
65880;BME280;52661;51.364;6.054;2023-02-17T10:22:00;101577.63;;;11.65;100.00
65880;BME280;52661;51.364;6.054;2023-02-17T10:24:29;101585.44;;;11.70;100.00
65880;BME280;52661;51.364;6.054;2023-02-17T10:27:14;101591.25;;;11.69;100.00
65880;BME280;52661;51.364;6.054;2023-02-17T10:32:24;101582.03;;;11.77;100.00
65880;BME280;52661;51.364;6.054;2023-02-17T10:35:02;101598.34;;;11.77;100.00
65880;BME280;52661;51.364;6.054;2023-02-17T10:37:47;101585.25;;;11.86;100.00
65880;BME280;52661;51.364;6.054;2023-02-17T10:40:19;101591.06;;;11.88;100.00
65880;BME280;52661;51.364;6.054;2023-02-17T10:42:46;101591.88;;;11.92;100.00
65880;BME280;52661;51.364;6.054;2023-02-17T10:45:34;101584.50;;;11.93;100.00
65880;BME280;52661;51.364;6.054;2023-02-17T10:48:14;101574.03;;;11.98;100.00
65880;BME280;52661;51.364;6.054;2023-02-17T10:50:41;101587.34;;;12.07;100.00
65880;BME280;52661;51.364;6.054;2023-02-17T10:53:13;101565.25;;;12.15;100.00
65880;BME280;52661;51.364;6.054;2023-02-17T10:55:57;101564.91;;;12.24;100.00
65880;BME280;52661;51.364;6.054;2023-02-17T10:58:54;101578.19;;;12.29;100.00
65880;BME280;52661;51.364;6.054;2023-02-17T11:01:22;101579.75;;;12.33;100.00
65880;BME280;52661;51.364;6.054;2023-02-17T11:03:59;101577.81;;;12.34;100.00
65880;BME280;52661;51.364;6.054;2023-02-17T11:06:25;101560.34;;;12.39;100.00
65880;BME280;52661;51.364;6.054;2023-02-17T11:09:04;101564.66;;;12.43;100.00
65880;BME280;52661;51.364;6.054;2023-02-17T11:11:33;101549.88;;;12.44;100.00
65880;BME280;52661;51.364;6.054;2023-02-17T11:14:11;101553.41;;;12.52;100.00
65880;BME280;52661;51.364;6.054;2023-02-17T11:16:43;101553.81;;;12.50;100.00
65880;BME280;52661;51.364;6.054;2023-02-17T11:19:32;101557.72;;;12.60;100.00
65880;BME280;52661;51.364;6.054;2023-02-17T11:21:59;101565.50;;;12.58;100.00
65880;BME280;52661;51.364;6.054;2023-02-17T11:24:27;101576.78;;;12.60;100.00
65880;BME280;52661;51.364;6.054;2023-02-17T11:27:23;101573.66;;;12.51;100.00
65880;BME280;52661;51.364;6.054;2023-02-17T11:29:44;101570.94;;;12.54;100.00
65880;BME280;52661;51.364;6.054;2023-02-17T11:32:10;101564.69;;;12.50;100.00
65880;BME280;52661;51.364;6.054;2023-02-17T11:34:38;101582.19;;;12.49;100.00
65880;BME280;52661;51.364;6.054;2023-02-17T11:39:38;101544.81;;;12.43;100.00
65880;BME280;52661;51.364;6.054;2023-02-17T11:42:19;101523.03;;;12.46;100.00
65880;BME280;52661;51.364;6.054;2023-02-17T11:44:45;101526.59;;;12.54;100.00
65880;BME280;52661;51.364;6.054;2023-02-17T11:58:31;101497.94;;;13.02;100.00
65880;BME280;52661;51.364;6.054;2023-02-17T12:01:26;101530.78;;;13.27;100.00
65880;BME280;52661;51.364;6.054;2023-02-17T12:04:24;101509.69;;;13.17;100.00
65880;BME280;52661;51.364;6.054;2023-02-17T12:12:24;101526.50;;;13.37;100.00
65880;BME280;52661;51.364;6.054;2023-02-17T12:17:35;101524.16;;;13.49;100.00
65880;BME280;52661;51.364;6.054;2023-02-17T12:20:37;101538.59;;;13.57;100.00
65880;BME280;52661;51.364;6.054;2023-02-17T12:28:40;101529.22;;;13.44;100.00
65880;BME280;52661;51.364;6.054;2023-02-17T12:36:37;101530.38;;;13.39;100.00
65880;BME280;52661;51.364;6.054;2023-02-17T12:39:14;101538.56;;;13.36;100.00
65880;BME280;52661;51.364;6.054;2023-02-17T12:42:06;101528.84;;;13.35;100.00
65880;BME280;52661;51.364;6.054;2023-02-17T12:44:43;101513.63;;;13.34;100.00
65880;BME280;52661;51.364;6.054;2023-02-17T12:47:26;101526.50;;;13.40;100.00
65880;BME280;52661;51.364;6.054;2023-02-17T12:49:58;101521.84;;;13.44;100.00
65880;BME280;52661;51.364;6.054;2023-02-17T12:52:29;101532.34;;;13.49;100.00
65880;BME280;52661;51.364;6.054;2023-02-17T12:55:02;101543.66;;;13.51;100.00
65880;BME280;52661;51.364;6.054;2023-02-17T12:57:43;101556.94;;;13.60;100.00
65880;BME280;52661;51.364;6.054;2023-02-17T13:00:15;101558.44;;;13.47;100.00
65880;BME280;52661;51.364;6.054;2023-02-17T13:02:42;101566.25;;;13.41;100.00
65880;BME280;52661;51.364;6.054;2023-02-17T13:05:19;101557.28;;;13.41;100.00
65880;BME280;52661;51.364;6.054;2023-02-17T13:08:06;101571.69;;;13.41;100.00
65880;BME280;52661;51.364;6.054;2023-02-17T13:10:36;101559.59;;;13.35;100.00
65880;BME280;52661;51.364;6.054;2023-02-17T13:15:42;101575.19;;;13.31;100.00
65880;BME280;52661;51.364;6.054;2023-02-17T13:21:00;101557.25;;;13.34;100.00
65880;BME280;52661;51.364;6.054;2023-02-17T13:23:36;101566.25;;;13.41;100.00
65880;BME280;52661;51.364;6.054;2023-02-17T13:26:12;101572.06;;;13.40;100.00
65880;BME280;52661;51.364;6.054;2023-02-17T13:28:38;101558.84;;;13.38;100.00
65880;BME280;52661;51.364;6.054;2023-02-17T13:31:16;101574.00;;;13.36;100.00
65880;BME280;52661;51.364;6.054;2023-02-17T13:36:40;101567.75;;;13.28;100.00
65880;BME280;52661;51.364;6.054;2023-02-17T13:41:50;101575.53;;;13.19;100.00
65880;BME280;52661;51.364;6.054;2023-02-17T13:46:44;101601.19;;;13.11;100.00
65880;BME280;52661;51.364;6.054;2023-02-17T13:49:19;101613.63;;;13.08;100.00
65880;BME280;52661;51.364;6.054;2023-02-17T13:51:46;101624.50;;;13.05;100.00
65880;BME280;52661;51.364;6.054;2023-02-17T13:54:11;101624.50;;;13.05;100.00
65880;BME280;52661;51.364;6.054;2023-02-17T13:56:38;101643.19;;;13.03;100.00
65880;BME280;52661;51.364;6.054;2023-02-17T13:59:09;101629.94;;;12.98;100.00
65880;BME280;52661;51.364;6.054;2023-02-17T14:01:39;101639.25;;;12.97;100.00
65880;BME280;52661;51.364;6.054;2023-02-17T14:04:17;101644.31;;;12.91;100.00
65880;BME280;52661;51.364;6.054;2023-02-17T14:06:43;101640.75;;;12.83;100.00